Time,TemperatureF,DewpointF,PressureIn,WindDirection,WindDirectionDegrees,WindSpeedMPH,WindSpeedGustMPH,Humidity,HourlyPrecipIn,Conditions,Clouds,dailyrainin,SoftwareType,DateUTC
2013-06-26 00:01:00,66.0,56.0,29.95,WSW,248,0.0,0.0,70,0.00,,,0.00,,2013-06-26 07:01:00,
2013-06-26 00:11:00,66.0,56.0,29.95,WSW,248,0.0,0.0,70,0.00,,,0.00,,2013-06-26 07:11:00,
2013-06-26 00:21:00,66.0,56.0,29.95,WSW,248,0.0,0.0,70,0.00,,,0.00,,2013-06-26 07:21:00,
2013-06-26 00:33:00,66.0,56.0,29.95,East,99,6.0,7.0,69,0.00,,,0.00,,2013-06-26 07:33:00,
2013-06-26 00:42:00,64.0,54.0,29.95,ENE,76,10.0,12.0,71,0.00,,,0.00,,2013-06-26 07:42:00,
2013-06-26 00:53:00,64.0,54.0,29.95,ENE,76,10.0,12.0,71,0.00,,,0.00,,2013-06-26 07:53:00,
2013-06-26 01:01:00,65.0,55.0,29.95,East,84,9.0,13.0,70,0.00,,,0.00,,2013-06-26 08:01:00,
2013-06-26 01:11:00,65.0,55.0,29.95,East,84,9.0,13.0,70,0.00,,,0.00,,2013-06-26 08:11:00,
2013-06-26 01:22:00,65.0,55.0,29.95,ENE,75,8.0,10.0,70,0.00,,,0.00,,2013-06-26 08:22:00,
2013-06-26 01:33:00,67.0,55.0,29.95,ENE,76,4.0,8.0,66,0.00,,,0.00,,2013-06-26 08:33:00,
2013-06-26 01:42:00,67.0,55.0,29.95,ENE,76,2.0,4.0,66,0.00,,,0.00,,2013-06-26 08:42:00,
2013-06-26 01:52:00,67.0,55.0,29.95,ENE,76,2.0,4.0,66,0.00,,,0.00,,2013-06-26 08:52:00,
2013-06-26 02:01:00,67.0,55.0,29.95,ENE,76,5.0,7.0,65,0.00,,,0.00,,2013-06-26 09:01:00,
2013-06-26 02:11:00,66.0,55.0,29.95,East,82,9.0,11.0,67,0.00,,,0.00,,2013-06-26 09:11:00,
2013-06-26 02:22:00,66.0,55.0,29.95,East,82,9.0,11.0,67,0.00,,,0.00,,2013-06-26 09:22:00,
2013-06-26 02:32:00,66.0,55.0,29.95,East,84,10.0,11.0,68,0.00,,,0.00,,2013-06-26 09:32:00,
2013-06-26 02:43:00,66.0,55.0,29.95,ESE,105,7.0,10.0,68,0.00,,,0.00,,2013-06-26 09:43:00,
2013-06-26 02:53:00,66.0,55.0,29.95,ESE,105,7.0,10.0,68,0.00,,,0.00,,2013-06-26 09:53:00,
2013-06-26 03:01:00,65.0,55.0,29.95,ESE,110,8.0,9.0,71,0.00,,,0.00,,2013-06-26 10:01:00,
2013-06-26 03:12:00,64.0,55.0,29.96,East,88,6.0,7.0,73,0.00,,,0.00,,2013-06-26 10:12:00,
2013-06-26 03:22:00,64.0,55.0,29.96,East,88,6.0,7.0,73,0.00,,,0.00,,2013-06-26 10:22:00,
2013-06-26 03:34:00,63.0,55.0,29.95,ENE,74,8.0,9.0,74,0.00,,,0.00,,2013-06-26 10:34:00,
2013-06-26 03:43:00,65.0,55.0,29.96,East,92,7.0,8.0,71,0.00,,,0.00,,2013-06-26 10:43:00,
2013-06-26 03:53:00,65.0,55.0,29.96,East,92,7.0,8.0,71,0.00,,,0.00,,2013-06-26 10:53:00,
2013-06-26 04:02:00,66.0,56.0,29.96,East,92,6.0,9.0,70,0.00,,,0.00,,2013-06-26 11:02:00,
2013-06-26 04:11:00,67.0,56.0,29.96,East,94,5.0,7.0,68,0.00,,,0.00,,2013-06-26 11:11:00,
2013-06-26 04:22:00,67.0,56.0,29.96,East,94,5.0,7.0,68,0.00,,,0.00,,2013-06-26 11:22:00,
2013-06-26 04:43:00,63.0,55.0,29.96,ESE,123,7.0,9.0,76,0.00,,,0.00,,2013-06-26 11:43:00,
2013-06-26 04:52:00,63.0,55.0,29.96,ESE,123,7.0,9.0,76,0.00,,,0.00,,2013-06-26 11:52:00,
2013-06-26 05:02:00,63.0,56.0,29.96,East,97,3.0,5.0,77,0.00,,,0.00,,2013-06-26 12:02:00,
2013-06-26 05:11:00,65.0,56.0,29.96,ENE,76,4.0,8.0,74,0.00,,,0.00,,2013-06-26 12:11:00,
2013-06-26 05:22:00,65.0,56.0,29.96,ENE,76,4.0,8.0,74,0.00,,,0.00,,2013-06-26 12:22:00,
2013-06-26 05:33:00,64.0,56.0,29.97,ENE,76,2.0,5.0,74,0.00,,,0.00,,2013-06-26 12:33:00,
2013-06-26 05:42:00,64.0,56.0,29.97,ENE,76,0.0,0.0,76,0.00,,,0.00,,2013-06-26 12:42:00,
2013-06-26 05:52:00,64.0,56.0,29.97,ENE,76,0.0,0.0,76,0.00,,,0.00,,2013-06-26 12:52:00,
2013-06-26 06:02:00,62.0,55.0,29.97,ENE,76,0.0,0.0,79,0.00,,,0.00,,2013-06-26 13:02:00,
2013-06-26 06:22:00,63.0,56.0,29.97,ENE,74,5.0,7.0,78,0.00,,,0.00,,2013-06-26 13:22:00,
2013-06-26 06:42:00,69.0,58.0,29.97,ENE,63,0.0,4.0,67,0.00,,,0.00,,2013-06-26 13:42:00,
2013-06-26 06:53:00,69.0,58.0,29.97,ENE,63,0.0,4.0,67,0.00,,,0.00,,2013-06-26 13:53:00,
2013-06-26 07:23:00,68.0,57.0,29.97,ENE,74,3.0,4.0,67,0.00,,,0.00,,2013-06-26 14:23:00,
2013-06-26 08:11:00,67.0,57.0,29.98,East,97,3.0,6.0,71,0.00,,,0.00,,2013-06-26 15:11:00,
2013-06-26 08:22:00,67.0,57.0,29.98,East,97,3.0,6.0,71,0.00,,,0.00,,2013-06-26 15:22:00,
2013-06-26 08:34:00,68.0,57.0,29.99,SE,128,1.0,5.0,69,0.00,,,0.00,,2013-06-26 15:34:00,
2013-06-26 08:43:00,70.0,58.0,29.99,East,97,0.0,5.0,65,0.00,,,0.00,,2013-06-26 15:43:00,
2013-06-26 08:53:00,70.0,58.0,29.99,East,97,0.0,5.0,65,0.00,,,0.00,,2013-06-26 15:53:00,
2013-06-26 09:01:00,66.0,57.0,29.99,East,97,0.0,5.0,73,0.00,,,0.00,,2013-06-26 16:01:00,
2013-06-26 09:11:00,65.0,58.0,29.99,West,279,3.0,6.0,77,0.00,,,0.00,,2013-06-26 16:11:00,
2013-06-26 09:22:00,65.0,58.0,29.99,West,279,3.0,6.0,77,0.00,,,0.00,,2013-06-26 16:22:00,
2013-06-26 09:34:00,66.0,58.0,30.00,West,268,1.0,4.0,76,0.00,,,0.00,,2013-06-26 16:34:00,
2013-06-26 09:43:00,67.0,59.0,30.00,WNW,290,4.0,7.0,75,0.00,,,0.00,,2013-06-26 16:43:00,
2013-06-26 09:52:00,67.0,59.0,30.00,WNW,290,4.0,7.0,75,0.00,,,0.00,,2013-06-26 16:52:00,
2013-06-26 10:01:00,68.0,59.0,30.00,WNW,290,2.0,7.0,73,0.00,,,0.00,,2013-06-26 17:01:00,
2013-06-26 10:11:00,68.0,59.0,30.00,WNW,290,2.0,7.0,73,0.00,,,0.00,,2013-06-26 17:11:00,
2013-06-26 10:23:00,69.0,60.0,30.00,WNW,295,4.0,7.0,73,0.00,,,0.00,,2013-06-26 17:23:00,
2013-06-26 10:33:00,68.0,60.0,30.00,WNW,286,4.0,9.0,75,0.00,,,0.00,,2013-06-26 17:33:00,
2013-06-26 10:43:00,69.0,60.0,30.00,WNW,296,5.0,9.0,73,0.00,,,0.00,,2013-06-26 17:43:00,
2013-06-26 10:52:00,69.0,60.0,30.00,WNW,296,5.0,9.0,73,0.00,,,0.00,,2013-06-26 17:52:00,
2013-06-26 11:01:00,70.0,61.0,30.01,West,262,5.0,9.0,73,0.00,,,0.00,,2013-06-26 18:01:00,
2013-06-26 11:11:00,70.0,61.0,30.01,West,262,5.0,9.0,73,0.00,,,0.00,,2013-06-26 18:11:00,
2013-06-26 11:22:00,70.0,60.0,30.00,WNW,288,6.0,10.0,70,0.00,,,0.00,,2013-06-26 18:22:00,
2013-06-26 11:34:00,71.0,60.0,30.01,WNW,294,7.0,12.0,68,0.00,,,0.00,,2013-06-26 18:34:00,
2013-06-26 11:42:00,71.0,59.0,30.01,WNW,302,6.0,13.0,67,0.00,,,0.00,,2013-06-26 18:42:00,
2013-06-26 11:52:00,71.0,59.0,30.01,WNW,302,6.0,13.0,67,0.00,,,0.00,,2013-06-26 18:52:00,
2013-06-26 12:01:00,71.0,59.0,30.01,West,262,9.0,14.0,67,0.00,,,0.00,,2013-06-26 19:01:00,
2013-06-26 12:11:00,71.0,59.0,30.01,West,262,9.0,14.0,67,0.00,,,0.00,,2013-06-26 19:11:00,
2013-06-26 12:22:00,71.0,59.0,30.01,West,262,9.0,14.0,67,0.00,,,0.00,,2013-06-26 19:22:00,
2013-06-26 12:32:00,73.0,60.0,30.00,WNW,289,6.0,11.0,64,0.00,,,0.00,,2013-06-26 19:32:00,
2013-06-26 12:52:00,74.0,61.0,30.00,WSW,237,6.0,11.0,63,0.00,,,0.00,,2013-06-26 19:52:00,
2013-06-26 13:01:00,74.0,60.0,29.99,WSW,245,7.0,11.0,61,0.00,,,0.00,,2013-06-26 20:01:00,
2013-06-26 13:12:00,74.0,60.0,29.99,West,267,6.0,10.0,62,0.00,,,0.00,,2013-06-26 20:12:00,
2013-06-26 13:22:00,74.0,60.0,29.99,West,267,6.0,10.0,62,0.00,,,0.00,,2013-06-26 20:22:00,
2013-06-26 13:33:00,76.0,60.0,29.98,West,273,8.0,12.0,58,0.00,,,0.00,,2013-06-26 20:33:00,
2013-06-26 13:43:00,77.0,61.0,29.99,WSW,257,8.0,13.0,57,0.00,,,0.00,,2013-06-26 20:43:00,
2013-06-26 13:52:00,77.0,61.0,29.99,WSW,257,8.0,13.0,57,0.00,,,0.00,,2013-06-26 20:52:00,
2013-06-26 14:01:00,76.0,60.0,29.99,West,273,6.0,13.0,58,0.00,,,0.00,,2013-06-26 21:01:00,
2013-06-26 14:11:00,78.0,61.0,29.99,WSW,257,6.0,12.0,55,0.00,,,0.00,,2013-06-26 21:11:00,
2013-06-26 14:23:00,78.0,61.0,29.99,WSW,257,6.0,12.0,55,0.00,,,0.00,,2013-06-26 21:23:00,
2013-06-26 14:33:00,78.0,60.0,29.99,WSW,248,6.0,9.0,54,0.00,,,0.00,,2013-06-26 21:33:00,
2013-06-26 14:42:00,77.0,61.0,29.99,WSW,247,2.0,7.0,57,0.00,,,0.00,,2013-06-26 21:42:00,
2013-06-26 14:52:00,77.0,61.0,29.99,WSW,247,2.0,7.0,57,0.00,,,0.00,,2013-06-26 21:52:00,
2013-06-26 15:01:00,77.0,60.0,29.98,NW,306,3.0,7.0,56,0.00,,,0.00,,2013-06-26 22:01:00,
2013-06-26 15:11:00,77.0,60.0,29.98,NW,306,3.0,7.0,56,0.00,,,0.00,,2013-06-26 22:11:00,
2013-06-26 15:21:00,77.0,60.0,29.98,West,259,3.0,7.0,56,0.00,,,0.00,,2013-06-26 22:21:00,
2013-06-26 15:33:00,77.0,60.0,29.98,West,267,4.0,10.0,56,0.00,,,0.00,,2013-06-26 22:33:00,
2013-06-26 15:43:00,76.0,60.0,29.98,West,263,6.0,9.0,57,0.00,,,0.00,,2013-06-26 22:43:00,
2013-06-26 15:52:00,76.0,60.0,29.98,West,263,6.0,9.0,57,0.00,,,0.00,,2013-06-26 22:52:00,
2013-06-26 16:01:00,76.0,59.0,29.97,West,267,4.0,9.0,56,0.00,,,0.00,,2013-06-26 23:01:00,
2013-06-26 16:11:00,77.0,60.0,29.97,WNW,295,5.0,10.0,56,0.00,,,0.00,,2013-06-26 23:11:00,
2013-06-26 16:22:00,77.0,60.0,29.97,WNW,295,5.0,10.0,56,0.00,,,0.00,,2013-06-26 23:22:00,
2013-06-26 16:34:00,75.0,59.0,29.96,West,263,8.0,13.0,58,0.00,,,0.00,,2013-06-26 23:34:00,
2013-06-26 16:43:00,76.0,59.0,29.96,West,263,8.0,11.0,56,0.00,,,0.00,,2013-06-26 23:43:00,
2013-06-26 16:52:00,76.0,59.0,29.96,West,263,8.0,11.0,56,0.00,,,0.00,,2013-06-26 23:52:00,
2013-06-26 17:01:00,77.0,59.0,29.96,West,272,8.0,14.0,54,0.00,,,0.00,,2013-06-27 00:01:00,
2013-06-26 17:11:00,77.0,59.0,29.96,West,272,8.0,14.0,54,0.00,,,0.00,,2013-06-27 00:11:00,
2013-06-26 17:22:00,77.0,59.0,29.96,WNW,283,8.0,12.0,54,0.00,,,0.00,,2013-06-27 00:22:00,
2013-06-26 17:33:00,77.0,59.0,29.95,West,263,8.0,12.0,54,0.00,,,0.00,,2013-06-27 00:33:00,
2013-06-26 17:42:00,77.0,59.0,29.95,West,263,8.0,12.0,54,0.00,,,0.00,,2013-06-27 00:42:00,
2013-06-26 17:53:00,77.0,60.0,29.95,WNW,290,8.0,15.0,55,0.00,,,0.00,,2013-06-27 00:53:00,
2013-06-26 18:01:00,77.0,60.0,29.95,WNW,290,8.0,15.0,55,0.00,,,0.00,,2013-06-27 01:01:00,
2013-06-26 18:11:00,77.0,60.0,29.95,WNW,290,8.0,15.0,55,0.00,,,0.00,,2013-06-27 01:11:00,
2013-06-26 18:21:00,77.0,59.0,29.94,WNW,293,8.0,12.0,54,0.00,,,0.00,,2013-06-27 01:21:00,
2013-06-26 18:32:00,77.0,59.0,29.94,WNW,293,8.0,12.0,54,0.00,,,0.00,,2013-06-27 01:32:00,
2013-06-26 18:43:00,77.0,59.0,29.94,WNW,293,8.0,12.0,54,0.00,,,0.00,,2013-06-27 01:43:00,
2013-06-26 18:53:00,77.0,60.0,29.94,West,267,8.0,13.0,55,0.00,,,0.00,,2013-06-27 01:53:00,
2013-06-26 19:01:00,77.0,60.0,29.94,West,267,8.0,13.0,55,0.00,,,0.00,,2013-06-27 02:01:00,
2013-06-26 19:11:00,77.0,60.0,29.94,West,267,8.0,13.0,55,0.00,,,0.00,,2013-06-27 02:11:00,
2013-06-26 19:22:00,76.0,59.0,29.93,WSW,257,8.0,13.0,56,0.00,,,0.00,,2013-06-27 02:22:00,
2013-06-26 19:32:00,76.0,59.0,29.93,WSW,257,8.0,13.0,56,0.00,,,0.00,,2013-06-27 02:32:00,
2013-06-26 19:42:00,76.0,59.0,29.93,WSW,257,8.0,13.0,56,0.00,,,0.00,,2013-06-27 02:42:00,
2013-06-26 19:51:00,75.0,60.0,29.93,West,264,9.0,13.0,59,0.00,,,0.00,,2013-06-27 02:51:00,
2013-06-26 19:52:00,76.0,59.0,29.93,WSW,257,8.0,13.0,56,0.00,,,0.00,,2013-06-27 02:52:00,
2013-06-26 20:01:00,76.0,59.0,29.93,WSW,257,8.0,13.0,56,0.00,,,0.00,,2013-06-27 03:01:00,
2013-06-26 20:11:00,75.0,60.0,29.93,West,264,9.0,13.0,59,0.00,,,0.00,,2013-06-27 03:11:00,
2013-06-26 20:21:00,75.0,60.0,29.93,West,264,9.0,13.0,59,0.00,,,0.00,,2013-06-27 03:21:00,
2013-06-26 20:32:00,75.0,60.0,29.93,West,264,9.0,13.0,59,0.00,,,0.00,,2013-06-27 03:32:00,
2013-06-26 20:42:00,75.0,60.0,29.93,West,264,9.0,13.0,59,0.00,,,0.00,,2013-06-27 03:42:00,
2013-06-26 21:01:00,70.0,59.0,29.93,WNW,289,6.0,10.0,67,0.00,,,0.00,,2013-06-27 04:01:00,
2013-06-26 21:11:00,70.0,59.0,29.93,WNW,289,6.0,10.0,67,0.00,,,0.00,,2013-06-27 04:11:00,
2013-06-26 21:32:00,70.0,59.0,29.93,WNW,289,6.0,10.0,67,0.00,,,0.00,,2013-06-27 04:32:00,
2013-06-26 21:42:00,72.0,59.0,29.94,WNW,297,2.0,5.0,63,0.00,,,0.00,,2013-06-27 04:42:00,
2013-06-26 21:52:00,72.0,59.0,29.94,WNW,297,2.0,5.0,63,0.00,,,0.00,,2013-06-27 04:52:00,
2013-06-26 22:02:00,72.0,59.0,29.94,WNW,297,2.0,5.0,63,0.00,,,0.00,,2013-06-27 05:02:00,
2013-06-26 22:12:00,73.0,59.0,29.94,WNW,286,5.0,7.0,62,0.00,,,0.00,,2013-06-27 05:12:00,
2013-06-26 22:21:00,73.0,59.0,29.94,WNW,286,5.0,7.0,62,0.00,,,0.00,,2013-06-27 05:21:00,
2013-06-26 22:32:00,75.0,60.0,29.96,ENE,68,5.0,7.0,60,0.00,,,0.00,,2013-06-27 05:32:00,
2013-06-26 22:42:00,75.0,60.0,29.96,ENE,68,5.0,7.0,60,0.00,,,0.00,,2013-06-27 05:42:00,
2013-06-26 22:53:00,75.0,60.0,29.96,ENE,68,5.0,7.0,60,0.00,,,0.00,,2013-06-27 05:53:00,
2013-06-26 23:12:00,75.0,59.0,29.96,East,100,7.0,8.0,57,0.00,,,0.00,,2013-06-27 06:12:00,
2013-06-26 23:22:00,75.0,59.0,29.96,East,100,7.0,8.0,57,0.00,,,0.00,,2013-06-27 06:22:00,
2013-06-26 23:34:00,73.0,59.0,29.96,ESE,117,9.0,12.0,61,0.00,,,0.00,,2013-06-27 06:34:00,
2013-06-26 23:43:00,70.0,58.0,29.97,ESE,123,13.0,14.0,66,0.00,,,0.00,,2013-06-27 06:43:00,
2013-06-26 23:53:00,70.0,58.0,29.97,ESE,123,13.0,14.0,66,0.00,,,0.00,,2013-06-27 06:53:00,